createdAt,value
2022-11-01T00:00:49.474Z,15.28
2022-11-01T00:03:15.291Z,15.29
2022-11-01T00:05:41.029Z,15.20
2022-11-01T00:08:06.814Z,15.20
2022-11-01T00:10:32.569Z,15.22
2022-11-01T00:12:58.503Z,15.16
2022-11-01T00:15:24.411Z,15.12
2022-11-01T00:17:50.244Z,15.12
2022-11-01T00:20:16.184Z,15.22
2022-11-01T00:22:41.931Z,15.09
2022-11-01T00:25:08.302Z,15.00
2022-11-01T00:27:34.049Z,15.01
2022-11-01T00:29:59.846Z,15.01
2022-11-01T00:32:25.626Z,14.97
2022-11-01T00:34:51.468Z,14.92
2022-11-01T00:37:17.215Z,15.04
2022-11-01T00:39:43.169Z,14.95
2022-11-01T00:42:08.995Z,14.84
2022-11-01T00:44:34.738Z,14.86
2022-11-01T00:47:00.493Z,14.80
2022-11-01T00:49:26.300Z,14.67
2022-11-01T00:51:52.205Z,14.60
2022-11-01T00:54:17.995Z,14.55
2022-11-01T00:56:43.789Z,14.54
2022-11-01T00:59:09.551Z,14.42
2022-11-01T01:01:35.426Z,14.40
2022-11-01T01:04:01.766Z,14.26
2022-11-01T01:06:27.485Z,14.26
2022-11-01T01:08:53.349Z,14.08
2022-11-01T01:11:19.164Z,14.15
2022-11-01T01:13:44.929Z,14.03
2022-11-01T01:16:12.002Z,13.98
2022-11-01T01:18:38.020Z,14.03
2022-11-01T01:21:05.119Z,14.01
2022-11-01T01:23:31.515Z,13.98
2022-11-01T01:25:57.299Z,14.02
2022-11-01T01:28:23.175Z,14.04
2022-11-01T01:30:49.009Z,14.06
2022-11-01T01:33:14.821Z,14.01
2022-11-01T01:35:40.679Z,14.01
2022-11-01T01:38:06.975Z,14.10
2022-11-01T01:40:33.813Z,13.99
2022-11-01T01:42:59.698Z,13.92
2022-11-01T01:45:33.470Z,14.00
2022-11-01T01:48:09.198Z,14.11
2022-11-01T01:50:41.313Z,14.08
2022-11-01T01:53:12.965Z,13.97
2022-11-01T01:55:41.708Z,14.03
2022-11-01T01:58:09.867Z,14.13
2022-11-01T02:00:35.674Z,14.07
2022-11-01T02:03:01.897Z,14.05
2022-11-01T02:05:44.023Z,14.08
2022-11-01T02:08:12.237Z,14.12
2022-11-01T02:10:39.379Z,14.11
2022-11-01T02:13:13.356Z,14.13
2022-11-01T02:15:50.089Z,14.01
2022-11-01T02:18:38.069Z,14.06
2022-11-01T02:21:12.906Z,14.09
2022-11-01T02:23:57.270Z,14.20
2022-11-01T02:26:23.034Z,14.10
2022-11-01T02:28:54.697Z,14.18
2022-11-01T02:31:32.354Z,14.19
2022-11-01T02:34:09.926Z,14.13
2022-11-01T02:36:43.739Z,14.23
2022-11-01T02:39:26.668Z,14.14
2022-11-01T02:42:09.883Z,14.13
2022-11-01T02:44:41.779Z,14.12
2022-11-01T02:47:11.138Z,14.10
2022-11-01T02:49:50.037Z,14.14
2022-11-01T02:52:23.076Z,14.17
2022-11-01T02:54:52.451Z,14.10
2022-11-01T02:57:39.853Z,14.05
2022-11-01T03:00:27.409Z,14.03
2022-11-01T03:03:05.538Z,14.06
2022-11-01T03:05:59.149Z,14.05
2022-11-01T03:08:33.645Z,14.13
2022-11-01T03:11:04.753Z,14.10
2022-11-01T03:14:04.293Z,14.00
2022-11-01T03:16:43.883Z,14.05
2022-11-01T03:19:42.902Z,14.00
2022-11-01T03:22:25.343Z,13.98
2022-11-01T03:24:59.552Z,13.96
2022-11-01T03:27:27.960Z,14.00
2022-11-01T03:30:02.143Z,14.03
2022-11-01T03:32:33.708Z,14.11
2022-11-01T03:35:02.741Z,14.09
2022-11-01T03:37:31.511Z,14.05
2022-11-01T03:40:03.826Z,13.94
2022-11-01T03:42:31.294Z,13.95
2022-11-01T03:45:02.496Z,14.00
2022-11-01T03:47:29.109Z,13.99
2022-11-01T03:50:16.378Z,13.83
2022-11-01T03:52:42.820Z,13.80
2022-11-01T03:55:18.005Z,13.82
2022-11-01T03:57:45.203Z,13.76
2022-11-01T04:00:20.325Z,13.79
2022-11-01T04:02:46.956Z,13.89
2022-11-01T04:05:12.948Z,13.87
2022-11-01T04:07:39.585Z,13.77
2022-11-01T04:10:06.332Z,13.78
2022-11-01T04:12:32.150Z,13.78
2022-11-01T04:15:16.625Z,13.70
2022-11-01T04:18:01.086Z,13.78
2022-11-01T04:20:32.789Z,13.67
2022-11-01T04:23:04.465Z,13.72
2022-11-01T04:25:32.504Z,13.77
2022-11-01T04:27:58.559Z,13.78
2022-11-01T04:30:29.357Z,13.69
2022-11-01T04:32:55.686Z,13.73
2022-11-01T04:35:22.522Z,13.72
2022-11-01T04:37:54.654Z,13.60
2022-11-01T04:40:20.462Z,13.57
2022-11-01T04:42:46.253Z,13.62
2022-11-01T04:45:12.007Z,13.63
2022-11-01T04:47:37.848Z,13.59
2022-11-01T04:50:04.079Z,13.66
2022-11-01T04:52:29.839Z,13.57
2022-11-01T04:54:55.641Z,13.53
2022-11-01T04:57:24.363Z,13.46
2022-11-01T04:59:55.042Z,13.47
2022-11-01T05:02:22.845Z,13.50
2022-11-01T05:04:49.492Z,13.49
2022-11-01T05:07:15.607Z,13.43
2022-11-01T05:09:41.845Z,13.50
2022-11-01T05:12:08.681Z,13.53
2022-11-01T05:14:34.587Z,13.42
2022-11-01T05:17:00.567Z,13.32
2022-11-01T05:19:26.444Z,13.36
2022-11-01T05:21:52.678Z,13.51
2022-11-01T05:24:18.422Z,13.48
2022-11-01T05:26:44.267Z,13.44
2022-11-01T05:29:24.335Z,13.47
2022-11-01T05:31:56.254Z,13.53
2022-11-01T05:34:22.053Z,13.47
2022-11-01T05:36:47.939Z,13.53
2022-11-01T05:39:13.964Z,13.48
2022-11-01T05:41:42.854Z,13.56
2022-11-01T05:44:08.655Z,13.53
2022-11-01T05:46:34.712Z,13.56
2022-11-01T05:49:00.453Z,13.50
2022-11-01T05:51:26.264Z,13.48
2022-11-01T05:53:52.066Z,13.44
2022-11-01T05:56:18.133Z,13.40
2022-11-01T05:58:45.570Z,13.47
2022-11-01T06:01:11.543Z,13.44
2022-11-01T06:03:37.404Z,13.45
2022-11-01T06:06:03.807Z,13.35
2022-11-01T06:08:30.316Z,13.33
2022-11-01T06:11:03.958Z,13.28
2022-11-01T06:13:30.465Z,13.30
2022-11-01T06:16:05.118Z,13.38
2022-11-01T06:18:31.579Z,13.43
2022-11-01T06:20:58.507Z,13.40
2022-11-01T06:23:24.424Z,13.45
2022-11-01T06:25:50.272Z,13.35
2022-11-01T06:28:16.307Z,13.43
2022-11-01T06:30:43.325Z,13.32
2022-11-01T06:33:10.181Z,13.30
2022-11-01T06:35:36.726Z,13.41
2022-11-01T06:38:06.748Z,13.32
2022-11-01T06:40:33.785Z,13.40
2022-11-01T06:43:01.730Z,13.39
2022-11-01T06:45:29.840Z,13.45
2022-11-01T06:47:55.977Z,13.53
2022-11-01T06:50:21.895Z,13.58
2022-11-01T06:52:47.905Z,13.63
2022-11-01T06:55:13.803Z,13.57
2022-11-01T06:57:39.577Z,13.59
2022-11-01T07:00:06.452Z,13.63
2022-11-01T07:02:32.338Z,13.61
2022-11-01T07:04:58.214Z,13.73
2022-11-01T07:07:24.102Z,13.69
2022-11-01T07:09:50.070Z,13.67
2022-11-01T07:12:15.951Z,13.71
2022-11-01T07:14:41.746Z,13.77
2022-11-01T07:17:07.608Z,13.80
2022-11-01T07:19:33.382Z,13.76
2022-11-01T07:21:59.282Z,13.70
2022-11-01T07:24:25.097Z,13.75
2022-11-01T07:26:50.920Z,13.64
2022-11-01T07:29:16.817Z,13.78
2022-11-01T07:31:42.663Z,13.88
2022-11-01T07:34:08.471Z,13.88
2022-11-01T07:36:34.268Z,13.84
2022-11-01T07:39:00.025Z,13.80
2022-11-01T07:41:26.847Z,13.71
2022-11-01T07:43:52.602Z,13.89
2022-11-01T07:46:18.345Z,13.92
2022-11-01T07:48:44.173Z,13.90
2022-11-01T07:51:10.038Z,13.96
2022-11-01T07:53:35.831Z,13.66
2022-11-01T07:56:03.315Z,13.62
2022-11-01T07:58:29.435Z,13.61
2022-11-01T08:00:55.356Z,13.40
2022-11-01T08:03:21.278Z,13.32
2022-11-01T08:05:47.799Z,13.31
2022-11-01T08:08:15.482Z,13.18
2022-11-01T08:10:44.524Z,12.93
2022-11-01T08:13:13.157Z,12.87
2022-11-01T08:15:38.955Z,12.89
2022-11-01T08:18:05.351Z,12.82
2022-11-01T08:20:31.411Z,12.74
2022-11-01T08:22:57.629Z,12.81
2022-11-01T08:25:23.994Z,12.81
2022-11-01T08:27:50.163Z,12.84
2022-11-01T08:30:18.797Z,12.92
2022-11-01T08:32:44.689Z,12.96
2022-11-01T08:35:14.048Z,13.03
2022-11-01T08:37:50.764Z,13.22
2022-11-01T08:40:17.478Z,13.16
2022-11-01T08:42:43.380Z,13.22
2022-11-01T08:45:11.205Z,13.40
2022-11-01T08:47:38.434Z,13.30
2022-11-01T08:50:08.687Z,13.35
2022-11-01T08:52:37.016Z,13.57
2022-11-01T08:55:03.149Z,13.58
2022-11-01T08:57:30.278Z,13.44
2022-11-01T08:59:56.514Z,13.26
2022-11-01T09:02:22.676Z,13.13
2022-11-01T09:04:48.552Z,13.20
2022-11-01T09:07:14.420Z,13.03
2022-11-01T09:09:40.444Z,12.97
2022-11-01T09:12:10.882Z,13.13
2022-11-01T09:14:39.893Z,13.25
2022-11-01T09:17:05.967Z,13.40
2022-11-01T09:19:32.316Z,13.79
2022-11-01T09:21:58.899Z,13.94
2022-11-01T09:24:25.002Z,14.07
2022-11-01T09:26:50.993Z,14.24
2022-11-01T09:29:18.410Z,14.39
2022-11-01T09:31:44.284Z,15.00
2022-11-01T09:34:11.300Z,15.71
2022-11-01T09:36:37.231Z,17.09
2022-11-01T09:39:03.192Z,20.39
2022-11-01T09:42:01.196Z,23.19
2022-11-01T09:44:31.618Z,26.35
2022-11-01T09:47:02.593Z,30.05
2022-11-01T09:49:33.469Z,30.61
2022-11-01T09:51:59.381Z,31.39
2022-11-01T09:54:26.867Z,31.31
2022-11-01T09:57:20.599Z,31.61
2022-11-01T10:00:01.083Z,31.93
2022-11-01T10:02:42.212Z,31.37
2022-11-01T10:05:48.069Z,30.84
2022-11-01T10:08:29.566Z,33.01
2022-11-01T10:11:08.422Z,31.81
2022-11-01T10:13:34.667Z,33.36
2022-11-01T10:16:25.186Z,33.28
2022-11-01T10:19:10.514Z,35.29
2022-11-01T10:22:00.552Z,36.80
2022-11-01T10:24:52.328Z,37.06
2022-11-01T10:27:31.876Z,35.27
2022-11-01T10:30:05.469Z,35.07
2022-11-01T10:33:01.928Z,35.61
2022-11-01T10:35:42.721Z,36.91
2022-11-01T10:38:41.489Z,33.12
2022-11-01T10:41:20.645Z,35.69
2022-11-01T10:43:54.493Z,35.35
2022-11-01T10:46:22.546Z,35.44
2022-11-01T10:48:53.706Z,36.73
2022-11-01T10:51:27.671Z,36.44
2022-11-01T10:53:59.847Z,36.83
2022-11-01T10:56:31.557Z,34.05
2022-11-01T10:59:16.422Z,33.95
2022-11-01T11:01:43.534Z,36.20
2022-11-01T11:04:15.518Z,35.58
2022-11-01T11:06:42.057Z,34.87
2022-11-01T11:09:17.900Z,35.85
2022-11-01T11:11:47.048Z,35.28
2022-11-01T11:14:14.219Z,32.04
2022-11-01T11:17:13.637Z,32.37
2022-11-01T11:19:42.158Z,34.12
2022-11-01T11:22:08.846Z,33.45
2022-11-01T11:24:38.054Z,32.90
2022-11-01T11:27:12.212Z,32.33
2022-11-01T11:30:04.557Z,32.79
2022-11-01T11:32:45.663Z,34.14
2022-11-01T11:35:14.227Z,31.03
2022-11-01T11:37:51.931Z,31.82
2022-11-01T11:40:21.395Z,32.30
2022-11-01T11:42:52.974Z,29.17
2022-11-01T11:45:26.792Z,31.73
2022-11-01T11:47:54.123Z,31.52
2022-11-01T11:50:20.025Z,32.20
2022-11-01T11:52:55.661Z,31.57
2022-11-01T11:55:43.089Z,31.28
2022-11-01T11:58:32.224Z,32.83
2022-11-01T12:01:05.015Z,33.95
2022-11-01T12:03:49.582Z,33.94
2022-11-01T12:06:24.730Z,34.15
2022-11-01T12:08:58.497Z,35.32
2022-11-01T12:11:38.325Z,33.40
2022-11-01T12:14:17.853Z,31.11
2022-11-01T12:16:43.939Z,31.86
2022-11-01T12:19:31.016Z,33.73
2022-11-01T12:22:00.666Z,35.06
2022-11-01T12:24:35.293Z,34.99
2022-11-01T12:27:06.114Z,35.31
2022-11-01T12:29:41.797Z,34.66
2022-11-01T12:32:18.186Z,34.00
2022-11-01T12:34:47.902Z,33.72
2022-11-01T12:37:30.212Z,33.87
2022-11-01T12:40:36.948Z,35.49
2022-11-01T12:43:20.512Z,33.10
2022-11-01T12:45:55.688Z,33.67
2022-11-01T12:48:36.705Z,32.61
2022-11-01T12:51:19.787Z,32.02
2022-11-01T12:53:55.506Z,32.87
2022-11-01T12:56:21.438Z,32.48
2022-11-01T12:58:47.342Z,32.18
2022-11-01T13:01:25.493Z,33.85
2022-11-01T13:04:03.587Z,32.26
2022-11-01T13:06:42.815Z,29.32
2022-11-01T13:09:17.640Z,27.34
2022-11-01T13:11:55.658Z,25.99
2022-11-01T13:14:51.582Z,27.25
2022-11-01T13:17:35.520Z,28.25
2022-11-01T13:20:20.180Z,26.08
2022-11-01T13:23:30.153Z,23.87
2022-11-01T13:26:17.958Z,21.68
2022-11-01T13:29:06.935Z,20.53
2022-11-01T13:31:56.623Z,19.23
2022-11-01T13:34:47.144Z,18.70
2022-11-01T13:37:21.899Z,17.78
2022-11-01T13:39:50.537Z,17.89
2022-11-01T13:42:27.756Z,17.73
2022-11-01T13:45:14.143Z,17.61
2022-11-01T13:48:11.692Z,17.32
2022-11-01T13:50:44.285Z,17.18
2022-11-01T13:53:29.285Z,16.64
2022-11-01T13:56:00.631Z,16.44
2022-11-01T13:58:27.783Z,16.47
2022-11-01T14:00:55.102Z,16.15
2022-11-01T14:03:34.270Z,15.95
2022-11-01T14:06:06.281Z,16.10
2022-11-01T14:08:37.552Z,15.53
2022-11-01T14:11:04.039Z,15.73
2022-11-01T14:13:44.883Z,15.65
2022-11-01T14:16:13.841Z,15.64
2022-11-01T14:19:04.396Z,15.70
2022-11-01T14:21:41.929Z,15.86
2022-11-01T14:24:18.691Z,15.49
2022-11-01T14:26:48.802Z,15.62
2022-11-01T14:29:15.086Z,15.27
2022-11-01T14:31:45.132Z,15.52
2022-11-01T14:34:32.340Z,15.29
2022-11-01T14:37:04.810Z,15.59
2022-11-01T14:39:48.621Z,15.05
2022-11-01T14:42:22.455Z,14.88
2022-11-01T14:44:51.911Z,15.07
2022-11-01T14:47:40.135Z,15.14
2022-11-01T14:50:17.515Z,15.03
2022-11-01T14:52:50.198Z,15.21
2022-11-01T14:55:15.989Z,14.89
2022-11-01T14:57:44.426Z,14.96
2022-11-01T15:00:29.365Z,14.90
2022-11-01T15:05:31.551Z,14.85
2022-11-01T15:08:01.134Z,14.99
2022-11-01T15:10:27.807Z,14.88
2022-11-01T15:12:57.737Z,14.99
2022-11-01T15:15:36.300Z,14.64
2022-11-01T15:18:07.456Z,14.50
2022-11-01T15:20:40.127Z,14.58
2022-11-01T15:23:21.838Z,14.35
2022-11-01T15:25:55.876Z,14.52
2022-11-01T15:28:25.448Z,14.30
2022-11-01T15:30:57.029Z,14.23
2022-11-01T15:33:27.279Z,14.21
2022-11-01T15:35:55.385Z,14.18
2022-11-01T15:38:22.732Z,14.20
2022-11-01T15:40:52.492Z,14.12
2022-11-01T15:43:24.110Z,13.96
2022-11-01T15:45:59.552Z,13.86
2022-11-01T15:48:28.543Z,13.77
2022-11-01T15:51:04.536Z,13.76
2022-11-01T15:53:32.955Z,13.69
2022-11-01T15:56:22.324Z,13.71
2022-11-01T15:58:55.852Z,13.66
2022-11-01T16:01:23.398Z,13.62
2022-11-01T16:03:51.687Z,13.63
2022-11-01T16:06:36.085Z,13.61
2022-11-01T16:09:15.376Z,13.32
2022-11-01T16:11:41.254Z,13.33
2022-11-01T16:14:33.576Z,13.40
2022-11-01T16:17:19.931Z,13.06
2022-11-01T16:19:50.635Z,13.16
2022-11-01T16:22:32.450Z,13.11
2022-11-01T16:25:10.228Z,12.98
2022-11-01T16:27:51.441Z,12.94
2022-11-01T16:30:32.344Z,12.95
2022-11-01T16:33:17.205Z,13.11
2022-11-01T16:35:44.138Z,13.04
2022-11-01T16:38:31.325Z,12.78
2022-11-01T16:40:59.509Z,12.88
2022-11-01T16:43:27.960Z,12.74
2022-11-01T16:45:54.266Z,12.81
2022-11-01T16:48:28.956Z,12.75
2022-11-01T16:50:56.489Z,12.78
2022-11-01T16:53:28.532Z,12.59
2022-11-01T16:56:34.939Z,12.62
2022-11-01T16:59:04.785Z,12.68
2022-11-01T17:01:35.323Z,12.62
2022-11-01T17:04:02.303Z,12.62
2022-11-01T17:06:28.263Z,12.57
2022-11-01T17:08:54.032Z,12.57
2022-11-01T17:11:22.795Z,12.37
2022-11-01T17:13:48.728Z,12.18
2022-11-01T17:16:26.704Z,12.09
2022-11-01T17:18:56.835Z,12.12
2022-11-01T17:21:23.367Z,12.02
2022-11-01T17:23:50.505Z,11.97
2022-11-01T17:26:18.560Z,11.94
2022-11-01T17:28:49.525Z,11.97
2022-11-01T17:31:17.996Z,11.91
2022-11-01T17:33:43.830Z,11.82
2022-11-01T17:36:15.952Z,11.84
2022-11-01T17:38:44.178Z,11.86
2022-11-01T17:41:16.209Z,11.99
2022-11-01T17:43:42.547Z,11.77
2022-11-01T17:46:14.454Z,11.81
2022-11-01T17:48:40.290Z,11.72
2022-11-01T17:51:06.370Z,11.58
2022-11-01T17:53:32.326Z,11.55
2022-11-01T17:55:58.498Z,11.48
2022-11-01T17:58:24.344Z,11.62
2022-11-01T18:00:50.396Z,11.56
2022-11-01T18:03:16.268Z,11.46
2022-11-01T18:05:42.170Z,11.39
2022-11-01T18:08:30.247Z,11.40
2022-11-01T18:11:33.168Z,11.46
2022-11-01T18:14:06.000Z,11.37
2022-11-01T18:16:57.585Z,11.31
2022-11-01T18:19:23.287Z,11.52
2022-11-01T18:22:08.897Z,11.28
2022-11-01T18:24:45.589Z,11.30
2022-11-01T18:27:12.759Z,11.39
2022-11-01T18:29:43.316Z,11.28
2022-11-01T18:32:18.167Z,11.15
2022-11-01T18:34:51.152Z,11.02
2022-11-01T18:37:25.870Z,11.00
2022-11-01T18:40:24.034Z,11.08
2022-11-01T18:42:51.864Z,11.00
2022-11-01T18:45:24.308Z,10.95
2022-11-01T18:48:00.681Z,10.84
2022-11-01T18:50:27.655Z,10.78
2022-11-01T18:53:11.442Z,10.74
2022-11-01T18:55:38.846Z,10.76
2022-11-01T18:58:15.429Z,10.68
2022-11-01T19:00:42.294Z,10.62
2022-11-01T19:03:14.230Z,10.58
2022-11-01T19:05:41.451Z,10.76
2022-11-01T19:08:22.612Z,10.71
2022-11-01T19:10:49.179Z,10.61
2022-11-01T19:13:33.933Z,10.50
2022-11-01T19:16:01.231Z,10.56
2022-11-01T19:18:28.291Z,10.49
2022-11-01T19:20:59.799Z,10.41
2022-11-01T19:23:48.897Z,10.56
2022-11-01T19:26:34.832Z,10.45
2022-11-01T19:29:05.244Z,10.40
2022-11-01T19:31:36.541Z,10.44
2022-11-01T19:34:09.339Z,10.47
2022-11-01T19:39:32.128Z,10.34
2022-11-01T19:42:11.810Z,10.27
2022-11-01T19:44:37.677Z,10.38
2022-11-01T19:47:38.943Z,10.41
2022-11-01T19:50:28.762Z,10.44
2022-11-01T19:52:56.586Z,10.17
2022-11-01T19:55:43.950Z,10.20
2022-11-01T19:58:21.821Z,10.28
2022-11-01T20:01:02.990Z,10.23
2022-11-01T20:03:38.917Z,10.35
2022-11-01T20:06:29.738Z,10.30
2022-11-01T20:09:12.784Z,10.24
2022-11-01T20:11:38.793Z,10.17
2022-11-01T20:14:05.374Z,10.16
2022-11-01T20:16:31.270Z,10.05
2022-11-01T20:18:57.253Z,10.19
2022-11-01T20:21:23.181Z,10.12
2022-11-01T20:23:49.033Z,10.29
2022-11-01T20:26:14.851Z,10.23
2022-11-01T20:28:40.725Z,10.25
2022-11-01T20:31:06.668Z,10.27
2022-11-01T20:33:32.522Z,10.29
2022-11-01T20:35:58.488Z,10.29
2022-11-01T20:38:24.358Z,10.23
2022-11-01T20:40:50.199Z,10.30
2022-11-01T20:43:16.074Z,10.30
2022-11-01T20:45:41.909Z,10.22
2022-11-01T20:48:07.946Z,10.06
2022-11-01T20:50:34.834Z,10.22
2022-11-01T20:53:01.408Z,10.28
2022-11-01T20:55:27.596Z,10.18
2022-11-01T20:57:53.381Z,10.14
2022-11-01T21:00:19.399Z,10.04
2022-11-01T21:02:46.623Z,10.13
2022-11-01T21:05:22.594Z,10.12
2022-11-01T21:07:51.650Z,10.13
2022-11-01T21:10:32.882Z,10.06
2022-11-01T21:13:00.627Z,9.99
2022-11-01T21:15:38.257Z,9.78
2022-11-01T21:18:07.244Z,9.85
2022-11-01T21:20:41.142Z,9.77
2022-11-01T21:23:31.442Z,9.84
2022-11-01T21:26:00.332Z,9.92
2022-11-01T21:28:29.205Z,9.87
2022-11-01T21:31:17.355Z,9.82
2022-11-01T21:33:50.770Z,9.73
2022-11-01T21:36:19.697Z,9.76
2022-11-01T21:38:53.154Z,9.84
2022-11-01T21:41:43.427Z,9.88
2022-11-01T21:44:18.342Z,9.81
2022-11-01T21:47:14.116Z,9.73
2022-11-01T21:49:40.014Z,9.72
2022-11-01T21:54:42.273Z,9.77
2022-11-01T21:57:10.342Z,9.60
2022-11-01T21:59:36.798Z,9.73
2022-11-01T22:02:03.929Z,9.72
2022-11-01T22:04:30.937Z,9.64
2022-11-01T22:06:58.649Z,9.76
2022-11-01T22:09:25.376Z,9.86
2022-11-01T22:11:51.530Z,9.84
2022-11-01T22:14:17.599Z,9.66
2022-11-01T22:16:43.538Z,9.71
2022-11-01T22:19:09.545Z,9.68
2022-11-01T22:21:35.494Z,9.73
2022-11-01T22:24:02.497Z,9.65
2022-11-01T22:26:28.948Z,9.86
2022-11-01T22:28:55.210Z,9.85
2022-11-01T22:31:21.729Z,9.80
2022-11-01T22:33:52.090Z,9.84
2022-11-01T22:36:29.137Z,9.74
2022-11-01T22:38:57.158Z,9.59
2022-11-01T22:41:31.653Z,9.55
2022-11-01T22:44:02.916Z,9.58
2022-11-01T22:46:55.198Z,9.68
2022-11-01T22:49:41.077Z,9.62
2022-11-01T22:52:28.639Z,9.62
2022-11-01T22:55:10.040Z,9.70
2022-11-01T22:58:01.250Z,9.64
2022-11-01T23:00:32.797Z,9.63
2022-11-01T23:03:19.805Z,9.62
2022-11-01T23:05:46.583Z,9.66
2022-11-01T23:08:17.508Z,9.64
2022-11-01T23:10:47.397Z,9.76
2022-11-01T23:13:42.420Z,9.68
2022-11-01T23:16:24.267Z,9.58
2022-11-01T23:18:52.369Z,9.57
2022-11-01T23:21:20.582Z,9.44
2022-11-01T23:23:46.685Z,9.55
2022-11-01T23:26:14.404Z,9.52
2022-11-01T23:28:45.322Z,9.54
2022-11-01T23:31:11.577Z,9.62
2022-11-01T23:33:43.820Z,9.64
2022-11-01T23:36:18.866Z,9.58
2022-11-01T23:38:48.980Z,9.62
2022-11-01T23:41:21.904Z,9.54
2022-11-01T23:43:48.476Z,9.54
2022-11-01T23:46:14.760Z,9.63
2022-11-01T23:48:44.179Z,9.77
2022-11-01T23:51:19.208Z,9.64
2022-11-01T23:53:47.984Z,9.68
2022-11-01T23:56:17.648Z,9.73
2022-11-01T23:58:43.696Z,9.68
